sensor_id;sensor_type;location;lat;lon;timestamp;temperature;humidity
45383;DHT22;42455;51.660;5.824;2023-04-24T00:01:15;12.6;93.0
45383;DHT22;42455;51.660;5.824;2023-04-24T00:06:21;12.6;93.0
45383;DHT22;42455;51.660;5.824;2023-04-24T00:11:28;12.6;93.0
45383;DHT22;42455;51.660;5.824;2023-04-24T00:16:34;12.6;93.0
45383;DHT22;42455;51.660;5.824;2023-04-24T00:21:40;12.6;93.0
45383;DHT22;42455;51.660;5.824;2023-04-24T00:26:46;12.6;93.0
45383;DHT22;42455;51.660;5.824;2023-04-24T00:31:52;12.6;93.0
45383;DHT22;42455;51.660;5.824;2023-04-24T00:36:59;12.6;93.0
45383;DHT22;42455;51.660;5.824;2023-04-24T00:42:05;12.6;93.0
45383;DHT22;42455;51.660;5.824;2023-04-24T00:47:10;12.6;93.0
45383;DHT22;42455;51.660;5.824;2023-04-24T00:52:16;12.6;93.0
45383;DHT22;42455;51.660;5.824;2023-04-24T00:57:22;12.6;93.0
45383;DHT22;42455;51.660;5.824;2023-04-24T01:02:28;12.6;93.0
45383;DHT22;42455;51.660;5.824;2023-04-24T01:07:34;12.6;93.0
45383;DHT22;42455;51.660;5.824;2023-04-24T01:12:40;12.6;93.0
45383;DHT22;42455;51.660;5.824;2023-04-24T01:17:46;12.5;93.5
45383;DHT22;42455;51.660;5.824;2023-04-24T01:22:54;12.5;93.5
45383;DHT22;42455;51.660;5.824;2023-04-24T01:27:59;12.5;93.5
45383;DHT22;42455;51.660;5.824;2023-04-24T01:33:05;12.4;93.5
45383;DHT22;42455;51.660;5.824;2023-04-24T01:38:11;12.4;93.5
45383;DHT22;42455;51.660;5.824;2023-04-24T01:43:18;12.3;94.0
45383;DHT22;42455;51.660;5.824;2023-04-24T01:48:24;12.3;94.0
45383;DHT22;42455;51.660;5.824;2023-04-24T01:53:30;12.2;94.0
45383;DHT22;42455;51.660;5.824;2023-04-24T01:58:36;12.2;94.0
45383;DHT22;42455;51.660;5.824;2023-04-24T02:03:42;12.2;94.0
45383;DHT22;42455;51.660;5.824;2023-04-24T02:08:48;12.1;94.0
45383;DHT22;42455;51.660;5.824;2023-04-24T02:13:55;12.1;94.0
45383;DHT22;42455;51.660;5.824;2023-04-24T02:19:01;12.0;94.5
45383;DHT22;42455;51.660;5.824;2023-04-24T02:24:07;12.0;94.5
45383;DHT22;42455;51.660;5.824;2023-04-24T02:29:13;12.0;94.5
45383;DHT22;42455;51.660;5.824;2023-04-24T02:34:19;12.0;94.5
45383;DHT22;42455;51.660;5.824;2023-04-24T02:39:26;12.0;94.5
45383;DHT22;42455;51.660;5.824;2023-04-24T02:44:31;12.0;94.5
45383;DHT22;42455;51.660;5.824;2023-04-24T02:49:37;11.9;94.5
45383;DHT22;42455;51.660;5.824;2023-04-24T02:54:43;11.9;95.0
45383;DHT22;42455;51.660;5.824;2023-04-24T02:59:50;11.8;95.0
45383;DHT22;42455;51.660;5.824;2023-04-24T03:04:56;11.8;95.0
45383;DHT22;42455;51.660;5.824;2023-04-24T03:10:02;11.8;95.0
45383;DHT22;42455;51.660;5.824;2023-04-24T03:15:08;11.8;95.0
45383;DHT22;42455;51.660;5.824;2023-04-24T03:20:14;11.8;95.0
45383;DHT22;42455;51.660;5.824;2023-04-24T03:25:21;11.8;95.0
45383;DHT22;42455;51.660;5.824;2023-04-24T03:30:27;11.7;95.0
45383;DHT22;42455;51.660;5.824;2023-04-24T03:35:33;11.7;95.0
45383;DHT22;42455;51.660;5.824;2023-04-24T03:40:38;11.7;95.0
45383;DHT22;42455;51.660;5.824;2023-04-24T03:45:44;11.7;95.0
45383;DHT22;42455;51.660;5.824;2023-04-24T03:50:51;11.7;95.0
45383;DHT22;42455;51.660;5.824;2023-04-24T03:55:57;11.7;95.0
45383;DHT22;42455;51.660;5.824;2023-04-24T04:01:03;11.7;95.0
45383;DHT22;42455;51.660;5.824;2023-04-24T04:06:09;11.7;95.0
45383;DHT22;42455;51.660;5.824;2023-04-24T04:11:15;11.7;95.0
45383;DHT22;42455;51.660;5.824;2023-04-24T04:16:22;11.7;95.0
45383;DHT22;42455;51.660;5.824;2023-04-24T04:21:28;11.7;95.0
45383;DHT22;42455;51.660;5.824;2023-04-24T04:26:34;11.7;95.0
45383;DHT22;42455;51.660;5.824;2023-04-24T04:31:40;11.7;95.0
45383;DHT22;42455;51.660;5.824;2023-04-24T04:36:46;11.7;95.0
45383;DHT22;42455;51.660;5.824;2023-04-24T04:41:51;11.7;95.0
45383;DHT22;42455;51.660;5.824;2023-04-24T04:46:57;11.7;95.0
45383;DHT22;42455;51.660;5.824;2023-04-24T04:52:02;11.6;95.0
45383;DHT22;42455;51.660;5.824;2023-04-24T04:57:09;11.6;95.0
45383;DHT22;42455;51.660;5.824;2023-04-24T05:02:15;11.6;95.0
45383;DHT22;42455;51.660;5.824;2023-04-24T05:07:21;11.6;95.0
45383;DHT22;42455;51.660;5.824;2023-04-24T05:12:27;11.6;95.0
45383;DHT22;42455;51.660;5.824;2023-04-24T05:17:33;11.6;95.0
45383;DHT22;42455;51.660;5.824;2023-04-24T05:22:39;11.5;95.0
45383;DHT22;42455;51.660;5.824;2023-04-24T05:27:46;11.5;95.0
45383;DHT22;42455;51.660;5.824;2023-04-24T05:32:52;11.5;95.0
45383;DHT22;42455;51.660;5.824;2023-04-24T05:37:58;11.5;95.0
45383;DHT22;42455;51.660;5.824;2023-04-24T05:43:04;11.5;95.5
45383;DHT22;42455;51.660;5.824;2023-04-24T05:48:11;11.5;95.5
45383;DHT22;42455;51.660;5.824;2023-04-24T05:53:17;11.5;95.5
45383;DHT22;42455;51.660;5.824;2023-04-24T06:03:29;11.4;95.5
45383;DHT22;42455;51.660;5.824;2023-04-24T06:08:35;11.4;95.5
45383;DHT22;42455;51.660;5.824;2023-04-24T06:13:42;11.4;95.5
45383;DHT22;42455;51.660;5.824;2023-04-24T06:18:48;11.4;95.5
45383;DHT22;42455;51.660;5.824;2023-04-24T06:23:54;11.4;96.0
45383;DHT22;42455;51.660;5.824;2023-04-24T06:29:00;11.5;96.0
45383;DHT22;42455;51.660;5.824;2023-04-24T06:34:06;11.4;96.0
45383;DHT22;42455;51.660;5.824;2023-04-24T06:39:13;11.5;95.5
45383;DHT22;42455;51.660;5.824;2023-04-24T06:44:18;11.4;95.5
45383;DHT22;42455;51.660;5.824;2023-04-24T06:49:24;11.4;95.5
45383;DHT22;42455;51.660;5.824;2023-04-24T06:54:31;11.4;95.5
45383;DHT22;42455;51.660;5.824;2023-04-24T06:59:36;11.4;95.5
45383;DHT22;42455;51.660;5.824;2023-04-24T07:04:42;11.4;95.5
45383;DHT22;42455;51.660;5.824;2023-04-24T07:09:48;11.4;95.5
45383;DHT22;42455;51.660;5.824;2023-04-24T07:14:54;11.4;95.5
45383;DHT22;42455;51.660;5.824;2023-04-24T07:20:00;11.4;95.5
45383;DHT22;42455;51.660;5.824;2023-04-24T07:25:07;11.3;95.5
45383;DHT22;42455;51.660;5.824;2023-04-24T07:30:13;11.4;95.5
45383;DHT22;42455;51.660;5.824;2023-04-24T07:35:19;11.4;95.5
45383;DHT22;42455;51.660;5.824;2023-04-24T07:40:26;11.3;95.5
45383;DHT22;42455;51.660;5.824;2023-04-24T07:45:31;11.3;95.5
45383;DHT22;42455;51.660;5.824;2023-04-24T07:50:38;11.3;96.0
45383;DHT22;42455;51.660;5.824;2023-04-24T07:55:44;11.3;95.5
45383;DHT22;42455;51.660;5.824;2023-04-24T08:00:50;11.3;95.5
45383;DHT22;42455;51.660;5.824;2023-04-24T08:05:56;11.2;95.5
45383;DHT22;42455;51.660;5.824;2023-04-24T08:11:02;11.2;95.5
45383;DHT22;42455;51.660;5.824;2023-04-24T08:16:09;11.1;95.5
45383;DHT22;42455;51.660;5.824;2023-04-24T08:21:15;11.1;95.5
45383;DHT22;42455;51.660;5.824;2023-04-24T08:26:21;11.1;95.5
45383;DHT22;42455;51.660;5.824;2023-04-24T08:31:27;11.1;95.5
45383;DHT22;42455;51.660;5.824;2023-04-24T08:36:33;11.1;96.0
45383;DHT22;42455;51.660;5.824;2023-04-24T08:41:41;11.0;96.0
45383;DHT22;42455;51.660;5.824;2023-04-24T08:46:47;11.1;96.0
45383;DHT22;42455;51.660;5.824;2023-04-24T08:51:52;11.1;96.0
45383;DHT22;42455;51.660;5.824;2023-04-24T08:56:59;11.1;96.0
45383;DHT22;42455;51.660;5.824;2023-04-24T09:02:03;11.1;96.0
45383;DHT22;42455;51.660;5.824;2023-04-24T09:07:10;11.1;96.0
45383;DHT22;42455;51.660;5.824;2023-04-24T09:12:15;11.1;96.0
45383;DHT22;42455;51.660;5.824;2023-04-24T09:17:21;11.1;96.0
45383;DHT22;42455;51.660;5.824;2023-04-24T09:22:29;11.1;96.0
45383;DHT22;42455;51.660;5.824;2023-04-24T09:27:34;11.1;96.0
45383;DHT22;42455;51.660;5.824;2023-04-24T09:32:40;11.2;96.0
45383;DHT22;42455;51.660;5.824;2023-04-24T09:37:46;11.3;96.0
45383;DHT22;42455;51.660;5.824;2023-04-24T09:42:54;11.3;96.0
45383;DHT22;42455;51.660;5.824;2023-04-24T09:47:58;11.4;96.0
45383;DHT22;42455;51.660;5.824;2023-04-24T09:53:05;11.4;95.5
45383;DHT22;42455;51.660;5.824;2023-04-24T09:58:11;11.5;96.0
45383;DHT22;42455;51.660;5.824;2023-04-24T10:03:17;11.7;96.0
45383;DHT22;42455;51.660;5.824;2023-04-24T10:08:23;11.8;95.5
45383;DHT22;42455;51.660;5.824;2023-04-24T10:13:30;11.9;95.0
45383;DHT22;42455;51.660;5.824;2023-04-24T10:18:36;12.0;94.5
45383;DHT22;42455;51.660;5.824;2023-04-24T10:23:42;12.0;94.0
45383;DHT22;42455;51.660;5.824;2023-04-24T10:28:48;12.0;94.0
45383;DHT22;42455;51.660;5.824;2023-04-24T10:33:55;12.1;93.5
45383;DHT22;42455;51.660;5.824;2023-04-24T10:39:06;12.1;93.5
45383;DHT22;42455;51.660;5.824;2023-04-24T10:44:07;12.1;93.0
45383;DHT22;42455;51.660;5.824;2023-04-24T10:49:12;12.1;93.0
45383;DHT22;42455;51.660;5.824;2023-04-24T10:54:33;12.2;93.0
45383;DHT22;42455;51.660;5.824;2023-04-24T10:59:27;12.2;93.0
45383;DHT22;42455;51.660;5.824;2023-04-24T11:04:32;12.2;92.5
45383;DHT22;42455;51.660;5.824;2023-04-24T11:09:36;12.2;92.0
45383;DHT22;42455;51.660;5.824;2023-04-24T11:15:12;12.1;91.5
45383;DHT22;42455;51.660;5.824;2023-04-24T11:19:50;12.1;91.5
45383;DHT22;42455;51.660;5.824;2023-04-24T11:24:54;12.2;92.0
45383;DHT22;42455;51.660;5.824;2023-04-24T11:30:02;12.4;92.0
45383;DHT22;42455;51.660;5.824;2023-04-24T11:35:12;12.4;91.5
45383;DHT22;42455;51.660;5.824;2023-04-24T11:40:14;12.5;91.0
45383;DHT22;42455;51.660;5.824;2023-04-24T11:45:23;12.5;91.0
45383;DHT22;42455;51.660;5.824;2023-04-24T11:50:27;12.6;90.5
45383;DHT22;42455;51.660;5.824;2023-04-24T11:55:32;12.6;90.0
45383;DHT22;42455;51.660;5.824;2023-04-24T12:00:38;12.6;90.0
45383;DHT22;42455;51.660;5.824;2023-04-24T12:05:44;12.5;89.5
45383;DHT22;42455;51.660;5.824;2023-04-24T12:10:51;12.5;89.0
45383;DHT22;42455;51.660;5.824;2023-04-24T12:15:57;12.4;89.0
45383;DHT22;42455;51.660;5.824;2023-04-24T12:21:19;12.4;89.0
45383;DHT22;42455;51.660;5.824;2023-04-24T12:26:09;12.4;89.0
45383;DHT22;42455;51.660;5.824;2023-04-24T12:31:15;12.5;89.5
45383;DHT22;42455;51.660;5.824;2023-04-24T12:36:21;12.6;89.5
45383;DHT22;42455;51.660;5.824;2023-04-24T12:41:30;12.8;90.0
45383;DHT22;42455;51.660;5.824;2023-04-24T12:46:33;13.0;90.0
45383;DHT22;42455;51.660;5.824;2023-04-24T12:51:39;13.1;89.5
45383;DHT22;42455;51.660;5.824;2023-04-24T12:56:45;13.3;89.0
45383;DHT22;42455;51.660;5.824;2023-04-24T13:01:51;13.3;87.5
45383;DHT22;42455;51.660;5.824;2023-04-24T13:06:58;13.3;87.5
45383;DHT22;42455;51.660;5.824;2023-04-24T13:12:04;13.1;87.0
45383;DHT22;42455;51.660;5.824;2023-04-24T13:17:11;13.0;88.0
45383;DHT22;42455;51.660;5.824;2023-04-24T13:22:17;13.0;89.0
45383;DHT22;42455;51.660;5.824;2023-04-24T13:27:22;13.1;89.0
45383;DHT22;42455;51.660;5.824;2023-04-24T13:32:29;13.1;88.5
45383;DHT22;42455;51.660;5.824;2023-04-24T13:37:35;13.1;88.5
45383;DHT22;42455;51.660;5.824;2023-04-24T13:42:41;13.2;89.5
45383;DHT22;42455;51.660;5.824;2023-04-24T13:47:47;13.5;90.0
45383;DHT22;42455;51.660;5.824;2023-04-24T13:52:53;13.7;89.5
45383;DHT22;42455;51.660;5.824;2023-04-24T13:58:00;14.0;89.5
45383;DHT22;42455;51.660;5.824;2023-04-24T14:03:06;14.2;88.0
45383;DHT22;42455;51.660;5.824;2023-04-24T14:08:12;14.3;86.5
45383;DHT22;42455;51.660;5.824;2023-04-24T14:13:19;14.2;85.5
45383;DHT22;42455;51.660;5.824;2023-04-24T14:18:25;14.1;85.0
45383;DHT22;42455;51.660;5.824;2023-04-24T14:23:31;13.9;85.0
45383;DHT22;42455;51.660;5.824;2023-04-24T14:28:36;13.8;85.0
45383;DHT22;42455;51.660;5.824;2023-04-24T14:33:42;13.7;85.5
45383;DHT22;42455;51.660;5.824;2023-04-24T14:38:47;13.6;85.5
45383;DHT22;42455;51.660;5.824;2023-04-24T14:43:54;13.5;85.5
45383;DHT22;42455;51.660;5.824;2023-04-24T14:49:00;13.5;85.0
45383;DHT22;42455;51.660;5.824;2023-04-24T14:54:05;13.4;85.0
45383;DHT22;42455;51.660;5.824;2023-04-24T14:59:11;13.4;85.5
45383;DHT22;42455;51.660;5.824;2023-04-24T15:04:18;13.4;86.0
45383;DHT22;42455;51.660;5.824;2023-04-24T15:09:24;13.5;86.0
45383;DHT22;42455;51.660;5.824;2023-04-24T15:14:30;13.5;85.5
45383;DHT22;42455;51.660;5.824;2023-04-24T15:19:36;13.4;85.5
45383;DHT22;42455;51.660;5.824;2023-04-24T15:24:42;13.3;85.0
45383;DHT22;42455;51.660;5.824;2023-04-24T15:29:49;13.1;85.0
45383;DHT22;42455;51.660;5.824;2023-04-24T15:34:55;12.7;84.5
45383;DHT22;42455;51.660;5.824;2023-04-24T15:40:01;12.4;85.5
45383;DHT22;42455;51.660;5.824;2023-04-24T15:45:07;12.2;86.5
45383;DHT22;42455;51.660;5.824;2023-04-24T15:50:14;12.1;87.5
45383;DHT22;42455;51.660;5.824;2023-04-24T15:55:20;12.1;88.5
45383;DHT22;42455;51.660;5.824;2023-04-24T16:00:26;12.1;88.5
45383;DHT22;42455;51.660;5.824;2023-04-24T16:05:32;12.2;89.0
45383;DHT22;42455;51.660;5.824;2023-04-24T16:10:38;12.3;89.0
45383;DHT22;42455;51.660;5.824;2023-04-24T16:15:44;12.5;89.5
45383;DHT22;42455;51.660;5.824;2023-04-24T16:20:51;12.8;90.0
45383;DHT22;42455;51.660;5.824;2023-04-24T16:25:57;13.1;90.0
45383;DHT22;42455;51.660;5.824;2023-04-24T16:31:03;13.3;90.0
45383;DHT22;42455;51.660;5.824;2023-04-24T16:36:10;13.6;89.0
45383;DHT22;42455;51.660;5.824;2023-04-24T16:41:14;13.9;88.0
45383;DHT22;42455;51.660;5.824;2023-04-24T16:46:21;14.1;87.0
45383;DHT22;42455;51.660;5.824;2023-04-24T16:51:27;14.3;86.5
45383;DHT22;42455;51.660;5.824;2023-04-24T16:56:33;14.5;86.0
45383;DHT22;42455;51.660;5.824;2023-04-24T17:01:39;14.5;84.5
45383;DHT22;42455;51.660;5.824;2023-04-24T17:06:46;14.5;83.0
45383;DHT22;42455;51.660;5.824;2023-04-24T17:11:52;14.4;83.0
45383;DHT22;42455;51.660;5.824;2023-04-24T17:16:58;14.3;82.0
45383;DHT22;42455;51.660;5.824;2023-04-24T17:22:04;14.1;82.0
45383;DHT22;42455;51.660;5.824;2023-04-24T17:27:10;13.9;82.0
45383;DHT22;42455;51.660;5.824;2023-04-24T17:32:17;13.8;82.0
45383;DHT22;42455;51.660;5.824;2023-04-24T17:37:23;13.6;82.5
45383;DHT22;42455;51.660;5.824;2023-04-24T17:42:29;13.5;82.0
45383;DHT22;42455;51.660;5.824;2023-04-24T17:47:35;13.3;81.5
45383;DHT22;42455;51.660;5.824;2023-04-24T17:52:41;13.1;81.5
45383;DHT22;42455;51.660;5.824;2023-04-24T17:57:48;12.9;82.0
45383;DHT22;42455;51.660;5.824;2023-04-24T18:02:54;12.8;82.0
45383;DHT22;42455;51.660;5.824;2023-04-24T18:08:01;12.6;82.0
45383;DHT22;42455;51.660;5.824;2023-04-24T18:13:06;12.5;82.5
45383;DHT22;42455;51.660;5.824;2023-04-24T18:18:12;12.4;82.5
45383;DHT22;42455;51.660;5.824;2023-04-24T18:23:19;12.3;83.0
45383;DHT22;42455;51.660;5.824;2023-04-24T18:28:24;12.2;83.0
45383;DHT22;42455;51.660;5.824;2023-04-24T18:33:30;12.1;83.0
45383;DHT22;42455;51.660;5.824;2023-04-24T18:38:36;12.0;82.5
45383;DHT22;42455;51.660;5.824;2023-04-24T18:43:42;11.8;83.0
45383;DHT22;42455;51.660;5.824;2023-04-24T18:48:47;11.7;83.0
45383;DHT22;42455;51.660;5.824;2023-04-24T18:53:53;11.6;83.0
45383;DHT22;42455;51.660;5.824;2023-04-24T18:58:59;11.5;83.0
45383;DHT22;42455;51.660;5.824;2023-04-24T19:04:06;11.3;83.0
45383;DHT22;42455;51.660;5.824;2023-04-24T19:09:12;11.2;83.0
45383;DHT22;42455;51.660;5.824;2023-04-24T19:14:18;11.1;83.0
45383;DHT22;42455;51.660;5.824;2023-04-24T19:19:24;11.0;83.0
45383;DHT22;42455;51.660;5.824;2023-04-24T19:24:30;10.9;83.5
45383;DHT22;42455;51.660;5.824;2023-04-24T19:29:36;10.8;83.5
45383;DHT22;42455;51.660;5.824;2023-04-24T19:34:43;10.7;83.5
45383;DHT22;42455;51.660;5.824;2023-04-24T19:39:49;10.6;83.5
45383;DHT22;42455;51.660;5.824;2023-04-24T19:44:55;10.5;83.5
45383;DHT22;42455;51.660;5.824;2023-04-24T19:50:01;10.4;84.0
45383;DHT22;42455;51.660;5.824;2023-04-24T19:55:08;10.4;84.0
45383;DHT22;42455;51.660;5.824;2023-04-24T20:00:14;10.3;84.0
45383;DHT22;42455;51.660;5.824;2023-04-24T20:10:26;10.2;84.5
45383;DHT22;42455;51.660;5.824;2023-04-24T20:15:32;10.1;84.5
45383;DHT22;42455;51.660;5.824;2023-04-24T20:20:39;10.1;84.5
45383;DHT22;42455;51.660;5.824;2023-04-24T20:25:45;10.0;84.5
45383;DHT22;42455;51.660;5.824;2023-04-24T20:30:51;9.9;84.5
45383;DHT22;42455;51.660;5.824;2023-04-24T20:35:57;9.9;85.0
45383;DHT22;42455;51.660;5.824;2023-04-24T20:41:02;9.9;85.0
45383;DHT22;42455;51.660;5.824;2023-04-24T20:46:08;9.8;85.0
45383;DHT22;42455;51.660;5.824;2023-04-24T20:51:13;9.7;85.0
45383;DHT22;42455;51.660;5.824;2023-04-24T20:56:19;9.7;85.5
45383;DHT22;42455;51.660;5.824;2023-04-24T21:01:25;9.7;85.5
45383;DHT22;42455;51.660;5.824;2023-04-24T21:06:32;9.6;85.5
45383;DHT22;42455;51.660;5.824;2023-04-24T21:11:38;9.5;85.5
45383;DHT22;42455;51.660;5.824;2023-04-24T21:16:44;9.5;86.0
45383;DHT22;42455;51.660;5.824;2023-04-24T21:21:50;9.4;86.0
45383;DHT22;42455;51.660;5.824;2023-04-24T21:26:57;9.4;86.0
45383;DHT22;42455;51.660;5.824;2023-04-24T21:32:03;9.4;86.0
45383;DHT22;42455;51.660;5.824;2023-04-24T21:37:09;9.3;86.5
45383;DHT22;42455;51.660;5.824;2023-04-24T21:42:15;9.3;86.5
45383;DHT22;42455;51.660;5.824;2023-04-24T21:47:21;9.2;86.5
45383;DHT22;42455;51.660;5.824;2023-04-24T21:52:27;9.2;87.0
45383;DHT22;42455;51.660;5.824;2023-04-24T21:57:34;9.1;87.0
45383;DHT22;42455;51.660;5.824;2023-04-24T22:02:40;9.1;87.0
45383;DHT22;42455;51.660;5.824;2023-04-24T22:07:46;9.0;87.0
45383;DHT22;42455;51.660;5.824;2023-04-24T22:12:53;9.0;87.5
45383;DHT22;42455;51.660;5.824;2023-04-24T22:17:58;8.9;87.5
45383;DHT22;42455;51.660;5.824;2023-04-24T22:23:05;8.8;87.5
45383;DHT22;42455;51.660;5.824;2023-04-24T22:28:11;8.8;87.5
45383;DHT22;42455;51.660;5.824;2023-04-24T22:33:17;8.7;88.0
45383;DHT22;42455;51.660;5.824;2023-04-24T22:38:22;8.6;88.0
45383;DHT22;42455;51.660;5.824;2023-04-24T22:43:29;8.6;88.0
45383;DHT22;42455;51.660;5.824;2023-04-24T22:48:35;8.6;88.5
45383;DHT22;42455;51.660;5.824;2023-04-24T22:53:41;8.5;88.5
45383;DHT22;42455;51.660;5.824;2023-04-24T22:58:47;8.5;88.5
45383;DHT22;42455;51.660;5.824;2023-04-24T23:03:53;8.4;89.0
45383;DHT22;42455;51.660;5.824;2023-04-24T23:09:00;8.4;89.0
45383;DHT22;42455;51.660;5.824;2023-04-24T23:14:06;8.4;89.0
45383;DHT22;42455;51.660;5.824;2023-04-24T23:19:12;8.3;89.0
45383;DHT22;42455;51.660;5.824;2023-04-24T23:24:18;8.3;89.5
45383;DHT22;42455;51.660;5.824;2023-04-24T23:29:24;8.2;89.5
45383;DHT22;42455;51.660;5.824;2023-04-24T23:39:37;8.2;90.0
45383;DHT22;42455;51.660;5.824;2023-04-24T23:44:43;8.2;90.0
45383;DHT22;42455;51.660;5.824;2023-04-24T23:49:49;8.2;90.5
45383;DHT22;42455;51.660;5.824;2023-04-24T23:54:55;8.2;90.5
